sensor_id;sensor_type;location;lat;lon;timestamp;P1;durP1;ratioP1;P2;durP2;ratioP2
21601;SDS011;10963;50.934;4.668;2023-02-26T00:01:39;15.33;;;6.53;;
21601;SDS011;10963;50.934;4.668;2023-02-26T00:04:07;15.30;;;6.37;;
21601;SDS011;10963;50.934;4.668;2023-02-26T00:06:35;15.43;;;6.87;;
21601;SDS011;10963;50.934;4.668;2023-02-26T00:09:16;13.27;;;6.50;;
21601;SDS011;10963;50.934;4.668;2023-02-26T00:11:42;17.27;;;5.90;;
21601;SDS011;10963;50.934;4.668;2023-02-26T00:14:10;14.73;;;6.37;;
21601;SDS011;10963;50.934;4.668;2023-02-26T00:16:40;16.50;;;6.37;;
21601;SDS011;10963;50.934;4.668;2023-02-26T00:19:07;14.17;;;6.17;;
21601;SDS011;10963;50.934;4.668;2023-02-26T00:21:36;13.03;;;5.73;;
21601;SDS011;10963;50.934;4.668;2023-02-26T00:24:02;11.80;;;6.37;;
21601;SDS011;10963;50.934;4.668;2023-02-26T00:26:28;16.27;;;5.93;;
21601;SDS011;10963;50.934;4.668;2023-02-26T00:28:55;10.43;;;5.83;;
21601;SDS011;10963;50.934;4.668;2023-02-26T00:31:23;9.80;;;6.27;;
21601;SDS011;10963;50.934;4.668;2023-02-26T00:33:50;10.23;;;5.73;;
21601;SDS011;10963;50.934;4.668;2023-02-26T00:41:21;16.27;;;6.50;;
21601;SDS011;10963;50.934;4.668;2023-02-26T00:43:47;16.93;;;5.97;;
21601;SDS011;10963;50.934;4.668;2023-02-26T00:52:20;12.47;;;5.60;;
21601;SDS011;10963;50.934;4.668;2023-02-26T00:55:07;17.53;;;5.50;;
21601;SDS011;10963;50.934;4.668;2023-02-26T00:57:36;23.83;;;6.90;;
21601;SDS011;10963;50.934;4.668;2023-02-26T01:00:05;17.37;;;5.53;;
21601;SDS011;10963;50.934;4.668;2023-02-26T01:02:33;12.77;;;5.60;;
21601;SDS011;10963;50.934;4.668;2023-02-26T01:05:04;12.80;;;6.10;;
21601;SDS011;10963;50.934;4.668;2023-02-26T01:07:33;14.20;;;5.50;;
21601;SDS011;10963;50.934;4.668;2023-02-26T01:10:19;14.27;;;5.80;;
21601;SDS011;10963;50.934;4.668;2023-02-26T01:12:45;12.00;;;5.33;;
21601;SDS011;10963;50.934;4.668;2023-02-26T01:15:14;16.33;;;6.53;;
21601;SDS011;10963;50.934;4.668;2023-02-26T01:17:46;12.03;;;5.63;;
21601;SDS011;10963;50.934;4.668;2023-02-26T01:20:32;13.30;;;5.50;;
21601;SDS011;10963;50.934;4.668;2023-02-26T01:23:08;15.40;;;6.47;;
21601;SDS011;10963;50.934;4.668;2023-02-26T01:25:41;14.43;;;5.33;;
21601;SDS011;10963;50.934;4.668;2023-02-26T01:28:12;11.37;;;6.13;;
21601;SDS011;10963;50.934;4.668;2023-02-26T01:30:39;12.43;;;5.87;;
21601;SDS011;10963;50.934;4.668;2023-02-26T01:33:21;12.33;;;5.97;;
21601;SDS011;10963;50.934;4.668;2023-02-26T01:36:09;14.67;;;5.90;;
21601;SDS011;10963;50.934;4.668;2023-02-26T01:38:48;10.43;;;5.43;;
21601;SDS011;10963;50.934;4.668;2023-02-26T01:41:45;14.63;;;5.93;;
21601;SDS011;10963;50.934;4.668;2023-02-26T01:49:45;11.17;;;5.60;;
21601;SDS011;10963;50.934;4.668;2023-02-26T01:54:55;16.37;;;5.40;;
21601;SDS011;10963;50.934;4.668;2023-02-26T01:57:24;21.77;;;6.97;;
21601;SDS011;10963;50.934;4.668;2023-02-26T01:59:52;15.43;;;5.63;;
21601;SDS011;10963;50.934;4.668;2023-02-26T02:02:20;15.13;;;5.57;;
21601;SDS011;10963;50.934;4.668;2023-02-26T02:04:49;11.50;;;5.63;;
21601;SDS011;10963;50.934;4.668;2023-02-26T02:07:16;11.43;;;5.27;;
21601;SDS011;10963;50.934;4.668;2023-02-26T02:09:42;14.03;;;5.67;;
21601;SDS011;10963;50.934;4.668;2023-02-26T02:31:35;11.67;;;4.87;;
21601;SDS011;10963;50.934;4.668;2023-02-26T02:34:26;15.70;;;5.07;;
21601;SDS011;10963;50.934;4.668;2023-02-26T02:38:24;12.27;;;4.47;;
21601;SDS011;10963;50.934;4.668;2023-02-26T02:40:53;10.83;;;4.50;;
21601;SDS011;10963;50.934;4.668;2023-02-26T02:43:24;11.50;;;4.50;;
21601;SDS011;10963;50.934;4.668;2023-02-26T02:48:34;8.50;;;4.30;;
21601;SDS011;10963;50.934;4.668;2023-02-26T02:51:04;12.10;;;5.23;;
21601;SDS011;10963;50.934;4.668;2023-02-26T02:54:21;14.47;;;4.80;;
21601;SDS011;10963;50.934;4.668;2023-02-26T02:57:11;11.63;;;4.87;;
21601;SDS011;10963;50.934;4.668;2023-02-26T02:59:45;9.13;;;4.60;;
21601;SDS011;10963;50.934;4.668;2023-02-26T03:02:20;7.87;;;4.70;;
21601;SDS011;10963;50.934;4.668;2023-02-26T03:04:55;11.33;;;4.60;;
21601;SDS011;10963;50.934;4.668;2023-02-26T03:07:21;9.67;;;4.07;;
21601;SDS011;10963;50.934;4.668;2023-02-26T03:09:47;11.73;;;4.07;;
21601;SDS011;10963;50.934;4.668;2023-02-26T03:12:13;15.30;;;4.27;;
21601;SDS011;10963;50.934;4.668;2023-02-26T03:14:41;22.53;;;4.20;;
21601;SDS011;10963;50.934;4.668;2023-02-26T03:20:07;9.17;;;3.73;;
21601;SDS011;10963;50.934;4.668;2023-02-26T03:22:43;10.53;;;4.23;;
21601;SDS011;10963;50.934;4.668;2023-02-26T03:25:16;10.60;;;4.43;;
21601;SDS011;10963;50.934;4.668;2023-02-26T03:27:52;8.47;;;4.43;;
21601;SDS011;10963;50.934;4.668;2023-02-26T03:30:40;6.27;;;3.73;;
21601;SDS011;10963;50.934;4.668;2023-02-26T03:33:22;14.80;;;4.87;;
21601;SDS011;10963;50.934;4.668;2023-02-26T03:36:02;10.30;;;4.20;;
21601;SDS011;10963;50.934;4.668;2023-02-26T03:38:41;9.17;;;4.07;;
21601;SDS011;10963;50.934;4.668;2023-02-26T03:41:09;11.07;;;4.13;;
21601;SDS011;10963;50.934;4.668;2023-02-26T03:43:43;13.57;;;4.90;;
21601;SDS011;10963;50.934;4.668;2023-02-26T03:46:14;9.00;;;4.10;;
21601;SDS011;10963;50.934;4.668;2023-02-26T03:48:46;12.93;;;4.00;;
21601;SDS011;10963;50.934;4.668;2023-02-26T03:51:18;10.60;;;3.50;;
21601;SDS011;10963;50.934;4.668;2023-02-26T03:53:48;14.07;;;4.80;;
21601;SDS011;10963;50.934;4.668;2023-02-26T03:56:25;9.90;;;3.70;;
21601;SDS011;10963;50.934;4.668;2023-02-26T03:58:55;8.33;;;3.87;;
21601;SDS011;10963;50.934;4.668;2023-02-26T04:01:22;7.37;;;3.13;;
21601;SDS011;10963;50.934;4.668;2023-02-26T04:03:57;7.30;;;3.70;;
21601;SDS011;10963;50.934;4.668;2023-02-26T04:06:28;7.67;;;3.50;;
21601;SDS011;10963;50.934;4.668;2023-02-26T04:08:57;6.33;;;3.83;;
21601;SDS011;10963;50.934;4.668;2023-02-26T04:11:23;7.27;;;3.43;;
21601;SDS011;10963;50.934;4.668;2023-02-26T04:13:50;11.60;;;3.77;;
21601;SDS011;10963;50.934;4.668;2023-02-26T04:16:16;6.47;;;3.80;;
21601;SDS011;10963;50.934;4.668;2023-02-26T04:18:42;8.17;;;3.53;;
21601;SDS011;10963;50.934;4.668;2023-02-26T04:21:16;8.77;;;4.30;;
21601;SDS011;10963;50.934;4.668;2023-02-26T04:23:45;10.57;;;3.47;;
21601;SDS011;10963;50.934;4.668;2023-02-26T04:26:13;9.07;;;3.37;;
21601;SDS011;10963;50.934;4.668;2023-02-26T04:28:39;8.50;;;3.57;;
21601;SDS011;10963;50.934;4.668;2023-02-26T04:31:05;8.07;;;3.17;;
21601;SDS011;10963;50.934;4.668;2023-02-26T04:33:32;9.37;;;3.63;;
21601;SDS011;10963;50.934;4.668;2023-02-26T04:35:58;7.80;;;3.20;;
21601;SDS011;10963;50.934;4.668;2023-02-26T04:38:24;7.63;;;3.17;;
21601;SDS011;10963;50.934;4.668;2023-02-26T04:40:53;8.47;;;3.30;;
21601;SDS011;10963;50.934;4.668;2023-02-26T04:43:19;7.40;;;2.90;;
21601;SDS011;10963;50.934;4.668;2023-02-26T04:45:47;5.70;;;3.17;;
21601;SDS011;10963;50.934;4.668;2023-02-26T04:48:15;8.23;;;3.17;;
21601;SDS011;10963;50.934;4.668;2023-02-26T04:50:44;10.50;;;3.10;;
21601;SDS011;10963;50.934;4.668;2023-02-26T04:53:13;5.40;;;2.70;;
21601;SDS011;10963;50.934;4.668;2023-02-26T04:55:41;7.07;;;2.47;;
21601;SDS011;10963;50.934;4.668;2023-02-26T04:58:14;10.53;;;3.23;;
21601;SDS011;10963;50.934;4.668;2023-02-26T05:00:40;5.40;;;2.33;;
21601;SDS011;10963;50.934;4.668;2023-02-26T05:03:08;6.00;;;2.87;;
21601;SDS011;10963;50.934;4.668;2023-02-26T05:05:34;7.33;;;3.20;;
21601;SDS011;10963;50.934;4.668;2023-02-26T05:08:04;7.47;;;2.63;;
21601;SDS011;10963;50.934;4.668;2023-02-26T05:10:30;6.57;;;3.10;;
21601;SDS011;10963;50.934;4.668;2023-02-26T05:13:00;10.23;;;2.27;;
21601;SDS011;10963;50.934;4.668;2023-02-26T05:15:29;4.97;;;2.40;;
21601;SDS011;10963;50.934;4.668;2023-02-26T05:18:00;4.80;;;2.27;;
21601;SDS011;10963;50.934;4.668;2023-02-26T05:20:28;7.50;;;2.90;;
21601;SDS011;10963;50.934;4.668;2023-02-26T05:22:54;5.97;;;2.60;;
21601;SDS011;10963;50.934;4.668;2023-02-26T05:25:20;5.60;;;2.73;;
21601;SDS011;10963;50.934;4.668;2023-02-26T05:27:48;11.83;;;2.33;;
21601;SDS011;10963;50.934;4.668;2023-02-26T05:30:14;3.40;;;1.97;;
21601;SDS011;10963;50.934;4.668;2023-02-26T05:32:41;5.97;;;2.87;;
21601;SDS011;10963;50.934;4.668;2023-02-26T05:35:09;3.73;;;2.37;;
21601;SDS011;10963;50.934;4.668;2023-02-26T05:37:35;6.37;;;2.27;;
21601;SDS011;10963;50.934;4.668;2023-02-26T05:40:02;6.13;;;2.50;;
21601;SDS011;10963;50.934;4.668;2023-02-26T05:42:29;6.97;;;2.63;;
21601;SDS011;10963;50.934;4.668;2023-02-26T05:44:55;10.37;;;2.80;;
21601;SDS011;10963;50.934;4.668;2023-02-26T05:47:21;8.20;;;2.60;;
21601;SDS011;10963;50.934;4.668;2023-02-26T05:49:48;6.33;;;2.00;;
21601;SDS011;10963;50.934;4.668;2023-02-26T05:52:18;8.67;;;2.23;;
21601;SDS011;10963;50.934;4.668;2023-02-26T05:54:44;8.43;;;2.60;;
21601;SDS011;10963;50.934;4.668;2023-02-26T05:57:10;8.67;;;2.63;;
21601;SDS011;10963;50.934;4.668;2023-02-26T05:59:35;8.40;;;2.30;;
21601;SDS011;10963;50.934;4.668;2023-02-26T06:02:03;9.03;;;2.40;;
21601;SDS011;10963;50.934;4.668;2023-02-26T06:04:28;7.07;;;2.27;;
21601;SDS011;10963;50.934;4.668;2023-02-26T06:06:57;6.60;;;2.20;;
21601;SDS011;10963;50.934;4.668;2023-02-26T06:09:22;3.40;;;1.97;;
21601;SDS011;10963;50.934;4.668;2023-02-26T06:11:48;4.67;;;2.20;;
21601;SDS011;10963;50.934;4.668;2023-02-26T06:14:14;8.63;;;2.17;;
21601;SDS011;10963;50.934;4.668;2023-02-26T06:16:39;7.83;;;2.03;;
21601;SDS011;10963;50.934;4.668;2023-02-26T06:19:05;7.07;;;2.30;;
21601;SDS011;10963;50.934;4.668;2023-02-26T06:21:31;10.23;;;2.57;;
21601;SDS011;10963;50.934;4.668;2023-02-26T06:23:57;8.77;;;2.37;;
21601;SDS011;10963;50.934;4.668;2023-02-26T06:26:22;4.97;;;2.00;;
21601;SDS011;10963;50.934;4.668;2023-02-26T06:28:48;6.40;;;2.40;;
21601;SDS011;10963;50.934;4.668;2023-02-26T06:31:14;7.67;;;1.80;;
21601;SDS011;10963;50.934;4.668;2023-02-26T06:33:42;6.10;;;2.57;;
21601;SDS011;10963;50.934;4.668;2023-02-26T06:36:10;4.10;;;1.57;;
21601;SDS011;10963;50.934;4.668;2023-02-26T06:38:36;8.97;;;2.33;;
21601;SDS011;10963;50.934;4.668;2023-02-26T06:41:02;3.67;;;1.97;;
21601;SDS011;10963;50.934;4.668;2023-02-26T06:43:27;7.37;;;2.03;;
21601;SDS011;10963;50.934;4.668;2023-02-26T06:45:55;6.67;;;2.03;;
21601;SDS011;10963;50.934;4.668;2023-02-26T06:48:22;6.47;;;2.00;;
21601;SDS011;10963;50.934;4.668;2023-02-26T06:50:48;5.40;;;2.00;;
21601;SDS011;10963;50.934;4.668;2023-02-26T06:53:14;3.37;;;1.90;;
21601;SDS011;10963;50.934;4.668;2023-02-26T06:55:43;5.93;;;2.20;;
21601;SDS011;10963;50.934;4.668;2023-02-26T06:58:10;7.77;;;2.30;;
21601;SDS011;10963;50.934;4.668;2023-02-26T07:00:36;5.20;;;2.07;;
21601;SDS011;10963;50.934;4.668;2023-02-26T07:03:02;4.13;;;2.00;;
21601;SDS011;10963;50.934;4.668;2023-02-26T07:05:33;7.30;;;1.97;;
21601;SDS011;10963;50.934;4.668;2023-02-26T07:07:59;10.47;;;2.27;;
21601;SDS011;10963;50.934;4.668;2023-02-26T07:10:25;12.63;;;2.10;;
21601;SDS011;10963;50.934;4.668;2023-02-26T07:12:50;7.20;;;2.03;;
21601;SDS011;10963;50.934;4.668;2023-02-26T07:15:16;11.63;;;1.90;;
21601;SDS011;10963;50.934;4.668;2023-02-26T07:17:44;4.67;;;2.20;;
21601;SDS011;10963;50.934;4.668;2023-02-26T07:20:12;3.67;;;2.23;;
21601;SDS011;10963;50.934;4.668;2023-02-26T07:22:38;5.07;;;1.67;;
21601;SDS011;10963;50.934;4.668;2023-02-26T07:25:04;4.00;;;2.23;;
21601;SDS011;10963;50.934;4.668;2023-02-26T07:27:31;5.97;;;1.47;;
21601;SDS011;10963;50.934;4.668;2023-02-26T07:29:57;7.03;;;2.10;;
21601;SDS011;10963;50.934;4.668;2023-02-26T07:32:23;4.13;;;1.80;;
21601;SDS011;10963;50.934;4.668;2023-02-26T07:34:49;8.03;;;2.23;;
21601;SDS011;10963;50.934;4.668;2023-02-26T07:37:16;9.90;;;2.40;;
21601;SDS011;10963;50.934;4.668;2023-02-26T07:39:43;5.40;;;2.20;;
21601;SDS011;10963;50.934;4.668;2023-02-26T07:42:11;3.43;;;1.80;;
21601;SDS011;10963;50.934;4.668;2023-02-26T07:44:41;4.47;;;1.60;;
21601;SDS011;10963;50.934;4.668;2023-02-26T07:47:12;4.77;;;1.53;;
21601;SDS011;10963;50.934;4.668;2023-02-26T07:49:38;6.83;;;2.03;;
21601;SDS011;10963;50.934;4.668;2023-02-26T07:52:04;6.70;;;1.77;;
21601;SDS011;10963;50.934;4.668;2023-02-26T07:54:32;7.80;;;1.80;;
21601;SDS011;10963;50.934;4.668;2023-02-26T07:57:01;7.67;;;2.33;;
21601;SDS011;10963;50.934;4.668;2023-02-26T07:59:27;3.77;;;1.80;;
21601;SDS011;10963;50.934;4.668;2023-02-26T08:01:55;4.97;;;1.33;;
21601;SDS011;10963;50.934;4.668;2023-02-26T08:04:21;7.07;;;1.77;;
21601;SDS011;10963;50.934;4.668;2023-02-26T08:06:47;2.87;;;1.23;;
21601;SDS011;10963;50.934;4.668;2023-02-26T08:09:13;4.57;;;1.37;;
21601;SDS011;10963;50.934;4.668;2023-02-26T08:11:38;1.90;;;1.30;;
21601;SDS011;10963;50.934;4.668;2023-02-26T08:14:07;5.67;;;1.50;;
21601;SDS011;10963;50.934;4.668;2023-02-26T08:16:33;4.97;;;1.80;;
21601;SDS011;10963;50.934;4.668;2023-02-26T08:19:01;5.83;;;1.77;;
21601;SDS011;10963;50.934;4.668;2023-02-26T08:21:27;5.17;;;1.60;;
21601;SDS011;10963;50.934;4.668;2023-02-26T08:23:53;5.53;;;1.87;;
21601;SDS011;10963;50.934;4.668;2023-02-26T08:26:19;9.67;;;1.30;;
21601;SDS011;10963;50.934;4.668;2023-02-26T08:28:44;4.53;;;1.20;;
21601;SDS011;10963;50.934;4.668;2023-02-26T08:31:13;4.57;;;1.50;;
21601;SDS011;10963;50.934;4.668;2023-02-26T08:33:39;5.40;;;1.70;;
21601;SDS011;10963;50.934;4.668;2023-02-26T08:36:05;7.07;;;1.60;;
21601;SDS011;10963;50.934;4.668;2023-02-26T08:38:31;4.23;;;1.53;;
21601;SDS011;10963;50.934;4.668;2023-02-26T08:40:57;5.37;;;1.83;;
21601;SDS011;10963;50.934;4.668;2023-02-26T08:43:23;2.57;;;1.50;;
21601;SDS011;10963;50.934;4.668;2023-02-26T08:45:52;5.80;;;1.50;;
21601;SDS011;10963;50.934;4.668;2023-02-26T08:48:19;4.40;;;1.00;;
21601;SDS011;10963;50.934;4.668;2023-02-26T08:50:46;3.43;;;1.43;;
21601;SDS011;10963;50.934;4.668;2023-02-26T08:53:14;8.37;;;2.13;;
21601;SDS011;10963;50.934;4.668;2023-02-26T08:55:40;4.43;;;1.13;;
21601;SDS011;10963;50.934;4.668;2023-02-26T08:58:11;3.93;;;1.50;;
21601;SDS011;10963;50.934;4.668;2023-02-26T09:00:37;4.40;;;1.30;;
21601;SDS011;10963;50.934;4.668;2023-02-26T09:03:05;2.57;;;1.43;;
21601;SDS011;10963;50.934;4.668;2023-02-26T09:05:30;3.47;;;1.10;;
21601;SDS011;10963;50.934;4.668;2023-02-26T09:07:59;4.63;;;1.17;;
21601;SDS011;10963;50.934;4.668;2023-02-26T09:10:24;6.30;;;1.33;;
21601;SDS011;10963;50.934;4.668;2023-02-26T09:12:52;2.13;;;1.23;;
21601;SDS011;10963;50.934;4.668;2023-02-26T09:15:20;4.67;;;1.53;;
21601;SDS011;10963;50.934;4.668;2023-02-26T09:17:49;5.00;;;1.30;;
21601;SDS011;10963;50.934;4.668;2023-02-26T09:20:16;4.63;;;1.30;;
21601;SDS011;10963;50.934;4.668;2023-02-26T09:22:42;3.37;;;1.40;;
21601;SDS011;10963;50.934;4.668;2023-02-26T09:25:08;4.37;;;1.60;;
21601;SDS011;10963;50.934;4.668;2023-02-26T09:27:34;6.03;;;1.23;;
21601;SDS011;10963;50.934;4.668;2023-02-26T09:30:03;2.83;;;1.40;;
21601;SDS011;10963;50.934;4.668;2023-02-26T09:32:29;3.43;;;1.30;;
21601;SDS011;10963;50.934;4.668;2023-02-26T09:34:55;5.07;;;1.13;;
21601;SDS011;10963;50.934;4.668;2023-02-26T09:37:21;7.80;;;1.53;;
21601;SDS011;10963;50.934;4.668;2023-02-26T09:39:49;3.10;;;1.43;;
21601;SDS011;10963;50.934;4.668;2023-02-26T09:44:55;6.10;;;1.17;;
21601;SDS011;10963;50.934;4.668;2023-02-26T09:47:36;6.30;;;1.30;;
21601;SDS011;10963;50.934;4.668;2023-02-26T09:50:25;8.20;;;1.47;;
21601;SDS011;10963;50.934;4.668;2023-02-26T09:53:06;3.40;;;1.17;;
21601;SDS011;10963;50.934;4.668;2023-02-26T09:55:48;2.50;;;1.40;;
21601;SDS011;10963;50.934;4.668;2023-02-26T09:58:37;2.63;;;0.87;;
21601;SDS011;10963;50.934;4.668;2023-02-26T10:01:47;1.90;;;0.90;;
21601;SDS011;10963;50.934;4.668;2023-02-26T10:04:07;5.87;;;1.13;;
21601;SDS011;10963;50.934;4.668;2023-02-26T10:14:30;4.03;;;1.00;;
21601;SDS011;10963;50.934;4.668;2023-02-26T10:17:05;4.27;;;1.07;;
21601;SDS011;10963;50.934;4.668;2023-02-26T10:19:41;5.30;;;1.10;;
21601;SDS011;10963;50.934;4.668;2023-02-26T10:22:19;1.10;;;0.90;;
21601;SDS011;10963;50.934;4.668;2023-02-26T10:25:32;3.50;;;0.90;;
21601;SDS011;10963;50.934;4.668;2023-02-26T10:28:07;6.20;;;1.10;;
21601;SDS011;10963;50.934;4.668;2023-02-26T10:30:55;1.10;;;0.80;;
21601;SDS011;10963;50.934;4.668;2023-02-26T10:36:22;2.00;;;0.63;;
21601;SDS011;10963;50.934;4.668;2023-02-26T10:39:02;1.37;;;0.77;;
21601;SDS011;10963;50.934;4.668;2023-02-26T10:41:39;3.07;;;0.90;;
21601;SDS011;10963;50.934;4.668;2023-02-26T10:44:14;3.87;;;0.90;;
21601;SDS011;10963;50.934;4.668;2023-02-26T10:50:09;1.77;;;0.97;;
21601;SDS011;10963;50.934;4.668;2023-02-26T10:52:38;1.30;;;0.90;;
21601;SDS011;10963;50.934;4.668;2023-02-26T11:00:40;2.90;;;1.03;;
21601;SDS011;10963;50.934;4.668;2023-02-26T11:03:10;1.70;;;0.93;;
21601;SDS011;10963;50.934;4.668;2023-02-26T11:05:58;1.13;;;0.80;;
21601;SDS011;10963;50.934;4.668;2023-02-26T11:08:31;3.43;;;1.03;;
21601;SDS011;10963;50.934;4.668;2023-02-26T11:11:05;0.90;;;0.83;;
21601;SDS011;10963;50.934;4.668;2023-02-26T11:13:32;4.30;;;0.90;;
21601;SDS011;10963;50.934;4.668;2023-02-26T11:16:04;1.60;;;1.03;;
21601;SDS011;10963;50.934;4.668;2023-02-26T11:18:40;2.93;;;1.00;;
21601;SDS011;10963;50.934;4.668;2023-02-26T11:21:18;1.27;;;0.90;;
21601;SDS011;10963;50.934;4.668;2023-02-26T11:23:55;0.83;;;0.70;;
21601;SDS011;10963;50.934;4.668;2023-02-26T11:26:38;3.67;;;0.80;;
21601;SDS011;10963;50.934;4.668;2023-02-26T11:29:12;1.60;;;1.00;;
21601;SDS011;10963;50.934;4.668;2023-02-26T11:31:41;1.70;;;0.80;;
21601;SDS011;10963;50.934;4.668;2023-02-26T11:34:13;4.47;;;1.10;;
21601;SDS011;10963;50.934;4.668;2023-02-26T11:36:41;3.00;;;0.87;;
21601;SDS011;10963;50.934;4.668;2023-02-26T11:39:22;2.63;;;1.00;;
21601;SDS011;10963;50.934;4.668;2023-02-26T11:41:50;1.37;;;0.83;;
21601;SDS011;10963;50.934;4.668;2023-02-26T11:44:20;1.83;;;0.90;;
21601;SDS011;10963;50.934;4.668;2023-02-26T11:47:14;2.23;;;0.80;;
21601;SDS011;10963;50.934;4.668;2023-02-26T11:49:49;1.60;;;0.80;;
21601;SDS011;10963;50.934;4.668;2023-02-26T11:52:20;0.93;;;0.90;;
21601;SDS011;10963;50.934;4.668;2023-02-26T11:54:54;1.83;;;0.83;;
21601;SDS011;10963;50.934;4.668;2023-02-26T11:57:28;2.53;;;0.90;;
21601;SDS011;10963;50.934;4.668;2023-02-26T11:59:57;5.23;;;0.70;;
21601;SDS011;10963;50.934;4.668;2023-02-26T12:02:25;3.10;;;1.20;;
21601;SDS011;10963;50.934;4.668;2023-02-26T12:04:59;4.43;;;1.07;;
21601;SDS011;10963;50.934;4.668;2023-02-26T12:07:27;2.83;;;1.10;;
21601;SDS011;10963;50.934;4.668;2023-02-26T12:09:57;6.40;;;1.00;;
21601;SDS011;10963;50.934;4.668;2023-02-26T12:12:26;2.53;;;0.73;;
21601;SDS011;10963;50.934;4.668;2023-02-26T12:21:12;2.13;;;0.80;;
21601;SDS011;10963;50.934;4.668;2023-02-26T12:29:22;2.57;;;1.03;;
21601;SDS011;10963;50.934;4.668;2023-02-26T12:40:14;1.03;;;0.87;;
21601;SDS011;10963;50.934;4.668;2023-02-26T12:42:50;3.37;;;1.03;;
21601;SDS011;10963;50.934;4.668;2023-02-26T12:53:47;3.07;;;0.90;;
21601;SDS011;10963;50.934;4.668;2023-02-26T13:20:48;2.10;;;0.90;;
21601;SDS011;10963;50.934;4.668;2023-02-26T13:23:27;2.13;;;1.10;;
21601;SDS011;10963;50.934;4.668;2023-02-26T13:26:01;1.83;;;0.90;;
21601;SDS011;10963;50.934;4.668;2023-02-26T13:28:40;6.83;;;1.20;;
21601;SDS011;10963;50.934;4.668;2023-02-26T13:31:15;1.63;;;0.87;;
21601;SDS011;10963;50.934;4.668;2023-02-26T13:33:48;1.00;;;0.77;;
21601;SDS011;10963;50.934;4.668;2023-02-26T13:36:20;0.70;;;0.70;;
21601;SDS011;10963;50.934;4.668;2023-02-26T13:41:52;2.67;;;1.47;;
21601;SDS011;10963;50.934;4.668;2023-02-26T13:53:02;3.33;;;0.83;;
21601;SDS011;10963;50.934;4.668;2023-02-26T13:55:35;2.67;;;1.00;;
21601;SDS011;10963;50.934;4.668;2023-02-26T14:00:57;3.67;;;1.10;;
21601;SDS011;10963;50.934;4.668;2023-02-26T14:09:02;2.37;;;0.87;;
21601;SDS011;10963;50.934;4.668;2023-02-26T14:14:35;4.50;;;0.90;;
21601;SDS011;10963;50.934;4.668;2023-02-26T14:20:05;1.00;;;0.83;;
21601;SDS011;10963;50.934;4.668;2023-02-26T14:22:34;1.43;;;0.97;;
21601;SDS011;10963;50.934;4.668;2023-02-26T14:27:50;1.40;;;0.87;;
21601;SDS011;10963;50.934;4.668;2023-02-26T14:30:35;1.60;;;0.90;;
21601;SDS011;10963;50.934;4.668;2023-02-26T14:33:15;3.53;;;1.10;;
21601;SDS011;10963;50.934;4.668;2023-02-26T14:35:46;1.87;;;0.73;;
21601;SDS011;10963;50.934;4.668;2023-02-26T14:40:47;1.10;;;1.00;;
21601;SDS011;10963;50.934;4.668;2023-02-26T14:43:20;0.90;;;0.73;;
21601;SDS011;10963;50.934;4.668;2023-02-26T14:45:58;2.80;;;1.27;;
21601;SDS011;10963;50.934;4.668;2023-02-26T14:48:26;0.93;;;0.80;;
21601;SDS011;10963;50.934;4.668;2023-02-26T14:59:34;1.47;;;1.00;;
21601;SDS011;10963;50.934;4.668;2023-02-26T15:18:22;2.10;;;1.10;;
21601;SDS011;10963;50.934;4.668;2023-02-26T15:26:30;3.73;;;1.03;;
21601;SDS011;10963;50.934;4.668;2023-02-26T15:28:59;2.07;;;0.90;;
21601;SDS011;10963;50.934;4.668;2023-02-26T15:31:36;3.10;;;1.00;;
21601;SDS011;10963;50.934;4.668;2023-02-26T15:34:09;1.63;;;1.10;;
21601;SDS011;10963;50.934;4.668;2023-02-26T15:36:47;3.70;;;1.30;;
21601;SDS011;10963;50.934;4.668;2023-02-26T15:39:15;2.13;;;1.20;;
21601;SDS011;10963;50.934;4.668;2023-02-26T15:41:43;1.93;;;1.20;;
21601;SDS011;10963;50.934;4.668;2023-02-26T15:44:16;2.03;;;0.87;;
21601;SDS011;10963;50.934;4.668;2023-02-26T15:46:46;2.77;;;1.10;;
21601;SDS011;10963;50.934;4.668;2023-02-26T15:49:22;2.47;;;1.10;;
21601;SDS011;10963;50.934;4.668;2023-02-26T15:51:51;2.10;;;0.90;;
21601;SDS011;10963;50.934;4.668;2023-02-26T15:54:21;2.67;;;1.13;;
21601;SDS011;10963;50.934;4.668;2023-02-26T15:56:48;2.97;;;1.00;;
21601;SDS011;10963;50.934;4.668;2023-02-26T15:59:16;3.20;;;1.13;;
21601;SDS011;10963;50.934;4.668;2023-02-26T16:01:47;1.07;;;0.77;;
21601;SDS011;10963;50.934;4.668;2023-02-26T16:04:18;1.63;;;0.93;;
21601;SDS011;10963;50.934;4.668;2023-02-26T16:06:46;2.30;;;1.10;;
21601;SDS011;10963;50.934;4.668;2023-02-26T16:09:24;3.10;;;1.03;;
21601;SDS011;10963;50.934;4.668;2023-02-26T16:11:51;2.00;;;1.00;;
21601;SDS011;10963;50.934;4.668;2023-02-26T16:14:22;2.43;;;1.03;;
21601;SDS011;10963;50.934;4.668;2023-02-26T16:16:51;2.23;;;1.30;;
21601;SDS011;10963;50.934;4.668;2023-02-26T16:19:32;11.20;;;5.37;;
21601;SDS011;10963;50.934;4.668;2023-02-26T16:22:23;1.33;;;1.10;;
21601;SDS011;10963;50.934;4.668;2023-02-26T16:25:05;2.57;;;1.37;;
21601;SDS011;10963;50.934;4.668;2023-02-26T16:27:46;2.10;;;1.00;;
21601;SDS011;10963;50.934;4.668;2023-02-26T16:30:22;2.70;;;1.43;;
21601;SDS011;10963;50.934;4.668;2023-02-26T16:32:51;2.17;;;0.90;;
21601;SDS011;10963;50.934;4.668;2023-02-26T16:35:21;0.77;;;0.73;;
21601;SDS011;10963;50.934;4.668;2023-02-26T16:37:52;1.97;;;1.10;;
21601;SDS011;10963;50.934;4.668;2023-02-26T16:40:24;1.60;;;1.50;;
21601;SDS011;10963;50.934;4.668;2023-02-26T16:43:01;1.53;;;1.00;;
21601;SDS011;10963;50.934;4.668;2023-02-26T16:47:59;3.00;;;1.30;;
21601;SDS011;10963;50.934;4.668;2023-02-26T16:50:29;1.47;;;1.13;;
21601;SDS011;10963;50.934;4.668;2023-02-26T16:53:00;4.30;;;1.33;;
21601;SDS011;10963;50.934;4.668;2023-02-26T16:55:34;1.77;;;1.17;;
21601;SDS011;10963;50.934;4.668;2023-02-26T16:58:03;7.33;;;1.40;;
21601;SDS011;10963;50.934;4.668;2023-02-26T17:00:36;4.10;;;1.20;;
21601;SDS011;10963;50.934;4.668;2023-02-26T17:11:28;1.20;;;0.90;;
21601;SDS011;10963;50.934;4.668;2023-02-26T17:16:45;3.40;;;1.70;;
21601;SDS011;10963;50.934;4.668;2023-02-26T17:19:14;3.13;;;1.70;;
21601;SDS011;10963;50.934;4.668;2023-02-26T17:21:42;5.60;;;1.63;;
21601;SDS011;10963;50.934;4.668;2023-02-26T17:24:28;10.33;;;4.10;;
21601;SDS011;10963;50.934;4.668;2023-02-26T17:27:04;7.23;;;3.20;;
21601;SDS011;10963;50.934;4.668;2023-02-26T17:29:32;4.00;;;1.50;;
21601;SDS011;10963;50.934;4.668;2023-02-26T17:32:03;3.17;;;1.53;;
21601;SDS011;10963;50.934;4.668;2023-02-26T17:34:30;2.40;;;1.17;;
21601;SDS011;10963;50.934;4.668;2023-02-26T17:36:58;3.97;;;1.40;;
21601;SDS011;10963;50.934;4.668;2023-02-26T17:39:29;4.17;;;1.30;;
21601;SDS011;10963;50.934;4.668;2023-02-26T17:41:56;7.13;;;1.60;;
21601;SDS011;10963;50.934;4.668;2023-02-26T17:44:26;3.00;;;1.73;;
21601;SDS011;10963;50.934;4.668;2023-02-26T17:46:53;3.13;;;1.57;;
21601;SDS011;10963;50.934;4.668;2023-02-26T17:49:19;4.97;;;1.67;;
21601;SDS011;10963;50.934;4.668;2023-02-26T17:51:44;3.77;;;1.60;;
21601;SDS011;10963;50.934;4.668;2023-02-26T17:54:12;2.87;;;1.90;;
21601;SDS011;10963;50.934;4.668;2023-02-26T17:56:38;3.63;;;2.03;;
21601;SDS011;10963;50.934;4.668;2023-02-26T17:59:06;3.80;;;2.10;;
21601;SDS011;10963;50.934;4.668;2023-02-26T18:01:35;3.80;;;2.20;;
21601;SDS011;10963;50.934;4.668;2023-02-26T18:04:01;5.10;;;2.00;;
21601;SDS011;10963;50.934;4.668;2023-02-26T18:06:28;6.67;;;2.30;;
21601;SDS011;10963;50.934;4.668;2023-02-26T18:08:59;3.83;;;2.33;;
21601;SDS011;10963;50.934;4.668;2023-02-26T18:11:28;5.03;;;3.10;;
21601;SDS011;10963;50.934;4.668;2023-02-26T18:13:57;4.63;;;2.60;;
21601;SDS011;10963;50.934;4.668;2023-02-26T18:16:27;5.97;;;3.00;;
21601;SDS011;10963;50.934;4.668;2023-02-26T18:19:00;6.73;;;2.90;;
21601;SDS011;10963;50.934;4.668;2023-02-26T18:21:26;6.87;;;2.70;;
21601;SDS011;10963;50.934;4.668;2023-02-26T18:23:52;7.23;;;2.67;;